sensor_id;sensor_type;location;lat;lon;timestamp;P1;durP1;ratioP1;P2;durP2;ratioP2
53271;SDS011;39160;48.580;7.756;2022-07-06T00:00:39;3.10;;;1.42;;
53271;SDS011;39160;48.580;7.756;2022-07-06T00:05:30;1.77;;;0.90;;
53271;SDS011;39160;48.580;7.756;2022-07-06T00:10:21;1.83;;;1.05;;
53271;SDS011;39160;48.580;7.756;2022-07-06T00:15:11;1.88;;;1.10;;
53271;SDS011;39160;48.580;7.756;2022-07-06T00:20:02;1.40;;;1.00;;
53271;SDS011;39160;48.580;7.756;2022-07-06T00:24:53;3.45;;;1.30;;
53271;SDS011;39160;48.580;7.756;2022-07-06T00:29:44;2.88;;;1.00;;
53271;SDS011;39160;48.580;7.756;2022-07-06T00:34:34;3.78;;;1.42;;
53271;SDS011;39160;48.580;7.756;2022-07-06T00:39:25;2.88;;;1.33;;
53271;SDS011;39160;48.580;7.756;2022-07-06T00:44:19;4.10;;;1.05;;
53271;SDS011;39160;48.580;7.756;2022-07-06T00:49:09;1.10;;;1.00;;
53271;SDS011;39160;48.580;7.756;2022-07-06T00:54:20;3.63;;;1.42;;
53271;SDS011;39160;48.580;7.756;2022-07-06T00:59:11;1.85;;;1.58;;
53271;SDS011;39160;48.580;7.756;2022-07-06T01:04:01;1.63;;;1.20;;
53271;SDS011;39160;48.580;7.756;2022-07-06T01:08:52;2.35;;;1.20;;
53271;SDS011;39160;48.580;7.756;2022-07-06T01:13:44;1.70;;;1.50;;
53271;SDS011;39160;48.580;7.756;2022-07-06T01:18:35;3.17;;;1.27;;
53271;SDS011;39160;48.580;7.756;2022-07-06T01:23:26;2.22;;;1.48;;
53271;SDS011;39160;48.580;7.756;2022-07-06T01:28:16;1.77;;;1.20;;
53271;SDS011;39160;48.580;7.756;2022-07-06T01:33:07;2.35;;;1.55;;
53271;SDS011;39160;48.580;7.756;2022-07-06T01:37:58;1.30;;;1.20;;
53271;SDS011;39160;48.580;7.756;2022-07-06T01:42:48;2.72;;;1.27;;
53271;SDS011;39160;48.580;7.756;2022-07-06T01:47:39;2.65;;;1.50;;
53271;SDS011;39160;48.580;7.756;2022-07-06T01:52:30;2.45;;;1.45;;
53271;SDS011;39160;48.580;7.756;2022-07-06T01:57:20;2.92;;;1.73;;
53271;SDS011;39160;48.580;7.756;2022-07-06T02:02:11;2.35;;;1.50;;
53271;SDS011;39160;48.580;7.756;2022-07-06T02:07:02;1.73;;;1.55;;
53271;SDS011;39160;48.580;7.756;2022-07-06T02:11:52;3.00;;;1.58;;
53271;SDS011;39160;48.580;7.756;2022-07-06T02:16:43;3.67;;;1.73;;
53271;SDS011;39160;48.580;7.756;2022-07-06T02:21:34;1.98;;;1.63;;
53271;SDS011;39160;48.580;7.756;2022-07-06T02:26:24;3.75;;;2.00;;
53271;SDS011;39160;48.580;7.756;2022-07-06T02:31:15;2.55;;;2.15;;
53271;SDS011;39160;48.580;7.756;2022-07-06T02:36:06;2.40;;;1.70;;
53271;SDS011;39160;48.580;7.756;2022-07-06T02:40:57;3.63;;;2.50;;
53271;SDS011;39160;48.580;7.756;2022-07-06T02:45:48;3.63;;;2.35;;
53271;SDS011;39160;48.580;7.756;2022-07-06T02:50:39;5.00;;;2.88;;
53271;SDS011;39160;48.580;7.756;2022-07-06T02:55:29;4.13;;;2.35;;
53271;SDS011;39160;48.580;7.756;2022-07-06T03:00:20;4.45;;;2.30;;
53271;SDS011;39160;48.580;7.756;2022-07-06T03:05:11;2.67;;;2.00;;
53271;SDS011;39160;48.580;7.756;2022-07-06T03:10:02;3.20;;;1.98;;
53271;SDS011;39160;48.580;7.756;2022-07-06T03:14:53;3.03;;;2.47;;
53271;SDS011;39160;48.580;7.756;2022-07-06T03:19:44;3.20;;;2.28;;
53271;SDS011;39160;48.580;7.756;2022-07-06T03:24:34;2.85;;;2.42;;
53271;SDS011;39160;48.580;7.756;2022-07-06T03:29:25;4.97;;;2.22;;
53271;SDS011;39160;48.580;7.756;2022-07-06T03:34:17;6.53;;;2.42;;
53271;SDS011;39160;48.580;7.756;2022-07-06T03:39:07;7.88;;;2.35;;
53271;SDS011;39160;48.580;7.756;2022-07-06T03:43:58;3.92;;;2.60;;
53271;SDS011;39160;48.580;7.756;2022-07-06T03:48:49;3.47;;;2.03;;
53271;SDS011;39160;48.580;7.756;2022-07-06T03:53:40;3.47;;;2.22;;
53271;SDS011;39160;48.580;7.756;2022-07-06T03:58:31;4.47;;;3.55;;
53271;SDS011;39160;48.580;7.756;2022-07-06T04:03:22;4.03;;;2.45;;
53271;SDS011;39160;48.580;7.756;2022-07-06T04:08:12;4.35;;;2.88;;
53271;SDS011;39160;48.580;7.756;2022-07-06T04:13:03;4.50;;;2.90;;
53271;SDS011;39160;48.580;7.756;2022-07-06T04:17:54;5.35;;;3.35;;
53271;SDS011;39160;48.580;7.756;2022-07-06T04:22:46;4.53;;;3.25;;
53271;SDS011;39160;48.580;7.756;2022-07-06T04:27:37;3.40;;;2.45;;
53271;SDS011;39160;48.580;7.756;2022-07-06T04:32:27;4.80;;;3.00;;
53271;SDS011;39160;48.580;7.756;2022-07-06T04:37:18;5.75;;;3.42;;
53271;SDS011;39160;48.580;7.756;2022-07-06T04:42:09;3.88;;;3.20;;
53271;SDS011;39160;48.580;7.756;2022-07-06T04:46:59;4.07;;;2.83;;
53271;SDS011;39160;48.580;7.756;2022-07-06T04:51:50;5.57;;;3.10;;
53271;SDS011;39160;48.580;7.756;2022-07-06T04:56:41;6.20;;;3.55;;
53271;SDS011;39160;48.580;7.756;2022-07-06T05:01:31;5.43;;;2.92;;
53271;SDS011;39160;48.580;7.756;2022-07-06T05:06:22;3.30;;;2.95;;
53271;SDS011;39160;48.580;7.756;2022-07-06T05:11:13;6.13;;;2.72;;
53271;SDS011;39160;48.580;7.756;2022-07-06T05:16:03;3.42;;;2.70;;
53271;SDS011;39160;48.580;7.756;2022-07-06T05:20:54;5.40;;;3.83;;
53271;SDS011;39160;48.580;7.756;2022-07-06T05:25:45;6.70;;;3.97;;
53271;SDS011;39160;48.580;7.756;2022-07-06T05:30:36;2.72;;;2.45;;
53271;SDS011;39160;48.580;7.756;2022-07-06T05:35:26;4.07;;;2.72;;
53271;SDS011;39160;48.580;7.756;2022-07-06T05:40:17;4.95;;;2.58;;
53271;SDS011;39160;48.580;7.756;2022-07-06T05:45:08;6.07;;;3.15;;
53271;SDS011;39160;48.580;7.756;2022-07-06T05:49:59;2.78;;;2.20;;
53271;SDS011;39160;48.580;7.756;2022-07-06T05:55:05;3.00;;;2.15;;
53271;SDS011;39160;48.580;7.756;2022-07-06T05:59:56;4.50;;;2.40;;
53271;SDS011;39160;48.580;7.756;2022-07-06T06:04:46;4.30;;;2.20;;
53271;SDS011;39160;48.580;7.756;2022-07-06T06:09:37;4.82;;;2.35;;
53271;SDS011;39160;48.580;7.756;2022-07-06T06:14:28;4.47;;;2.67;;
53271;SDS011;39160;48.580;7.756;2022-07-06T06:19:18;8.65;;;2.60;;
53271;SDS011;39160;48.580;7.756;2022-07-06T06:24:09;4.03;;;2.35;;
53271;SDS011;39160;48.580;7.756;2022-07-06T06:28:59;8.48;;;3.80;;
53271;SDS011;39160;48.580;7.756;2022-07-06T06:33:50;5.15;;;2.83;;
53271;SDS011;39160;48.580;7.756;2022-07-06T06:38:43;4.57;;;3.40;;
53271;SDS011;39160;48.580;7.756;2022-07-06T06:43:33;5.75;;;3.97;;
53271;SDS011;39160;48.580;7.756;2022-07-06T06:48:24;5.18;;;3.25;;
53271;SDS011;39160;48.580;7.756;2022-07-06T06:53:15;4.00;;;2.20;;
53271;SDS011;39160;48.580;7.756;2022-07-06T06:58:06;6.28;;;2.50;;
53271;SDS011;39160;48.580;7.756;2022-07-06T07:02:56;5.13;;;3.20;;
53271;SDS011;39160;48.580;7.756;2022-07-06T07:07:47;6.32;;;3.40;;
53271;SDS011;39160;48.580;7.756;2022-07-06T07:12:44;5.20;;;2.40;;
53271;SDS011;39160;48.580;7.756;2022-07-06T07:17:36;3.08;;;2.03;;
53271;SDS011;39160;48.580;7.756;2022-07-06T07:22:26;3.30;;;2.10;;
53271;SDS011;39160;48.580;7.756;2022-07-06T07:27:17;3.30;;;1.95;;
53271;SDS011;39160;48.580;7.756;2022-07-06T07:32:08;2.63;;;1.80;;
53271;SDS011;39160;48.580;7.756;2022-07-06T07:36:58;4.60;;;2.05;;
53271;SDS011;39160;48.580;7.756;2022-07-06T07:41:49;4.93;;;2.20;;
53271;SDS011;39160;48.580;7.756;2022-07-06T07:46:42;4.75;;;2.28;;
53271;SDS011;39160;48.580;7.756;2022-07-06T07:51:33;3.75;;;2.47;;
53271;SDS011;39160;48.580;7.756;2022-07-06T07:56:24;5.13;;;1.92;;
53271;SDS011;39160;48.580;7.756;2022-07-06T08:01:14;2.10;;;1.90;;
53271;SDS011;39160;48.580;7.756;2022-07-06T08:06:05;3.08;;;1.85;;
53271;SDS011;39160;48.580;7.756;2022-07-06T08:10:56;3.35;;;2.35;;
53271;SDS011;39160;48.580;7.756;2022-07-06T08:15:46;8.60;;;3.45;;
53271;SDS011;39160;48.580;7.756;2022-07-06T08:20:37;2.72;;;1.77;;
53271;SDS011;39160;48.580;7.756;2022-07-06T08:25:28;6.60;;;2.17;;
53271;SDS011;39160;48.580;7.756;2022-07-06T08:30:19;5.60;;;2.08;;
53271;SDS011;39160;48.580;7.756;2022-07-06T08:35:10;2.78;;;2.13;;
53271;SDS011;39160;48.580;7.756;2022-07-06T08:40:00;2.85;;;1.90;;
53271;SDS011;39160;48.580;7.756;2022-07-06T08:44:52;2.30;;;2.10;;
53271;SDS011;39160;48.580;7.756;2022-07-06T08:49:44;2.80;;;2.00;;
53271;SDS011;39160;48.580;7.756;2022-07-06T08:54:35;3.83;;;1.85;;
53271;SDS011;39160;48.580;7.756;2022-07-06T08:59:27;2.60;;;1.88;;
53271;SDS011;39160;48.580;7.756;2022-07-06T09:04:19;4.07;;;2.30;;
53271;SDS011;39160;48.580;7.756;2022-07-06T09:09:14;3.05;;;2.38;;
53271;SDS011;39160;48.580;7.756;2022-07-06T09:14:09;1.75;;;1.65;;
53271;SDS011;39160;48.580;7.756;2022-07-06T09:19:00;5.47;;;2.95;;
53271;SDS011;39160;48.580;7.756;2022-07-06T09:23:55;3.72;;;2.05;;
53271;SDS011;39160;48.580;7.756;2022-07-06T09:28:46;3.40;;;2.17;;
53271;SDS011;39160;48.580;7.756;2022-07-06T09:33:37;4.68;;;2.40;;
53271;SDS011;39160;48.580;7.756;2022-07-06T09:38:28;4.15;;;2.38;;
53271;SDS011;39160;48.580;7.756;2022-07-06T09:43:20;2.10;;;1.80;;
53271;SDS011;39160;48.580;7.756;2022-07-06T09:53:13;5.75;;;2.45;;
53271;SDS011;39160;48.580;7.756;2022-07-06T09:58:04;6.10;;;2.63;;
53271;SDS011;39160;48.580;7.756;2022-07-06T10:02:55;5.10;;;2.30;;
53271;SDS011;39160;48.580;7.756;2022-07-06T10:07:46;2.78;;;2.10;;
53271;SDS011;39160;48.580;7.756;2022-07-06T10:12:40;3.20;;;1.77;;
53271;SDS011;39160;48.580;7.756;2022-07-06T10:17:32;3.67;;;2.03;;
53271;SDS011;39160;48.580;7.756;2022-07-06T10:22:23;4.68;;;2.15;;
53271;SDS011;39160;48.580;7.756;2022-07-06T10:27:14;6.13;;;3.30;;
53271;SDS011;39160;48.580;7.756;2022-07-06T10:32:05;4.30;;;2.00;;
53271;SDS011;39160;48.580;7.756;2022-07-06T10:36:57;3.70;;;2.22;;
53271;SDS011;39160;48.580;7.756;2022-07-06T10:41:47;3.78;;;1.75;;
53271;SDS011;39160;48.580;7.756;2022-07-06T10:46:38;4.00;;;2.55;;
53271;SDS011;39160;48.580;7.756;2022-07-06T10:51:29;2.90;;;2.15;;
53271;SDS011;39160;48.580;7.756;2022-07-06T11:01:27;2.05;;;1.75;;
53271;SDS011;39160;48.580;7.756;2022-07-06T11:06:20;3.83;;;1.98;;
53271;SDS011;39160;48.580;7.756;2022-07-06T11:11:19;4.82;;;2.13;;
53271;SDS011;39160;48.580;7.756;2022-07-06T11:16:11;3.92;;;2.05;;
53271;SDS011;39160;48.580;7.756;2022-07-06T11:21:15;3.90;;;2.10;;
53271;SDS011;39160;48.580;7.756;2022-07-06T11:26:07;5.57;;;2.10;;
53271;SDS011;39160;48.580;7.756;2022-07-06T11:30:59;7.07;;;2.25;;
53271;SDS011;39160;48.580;7.756;2022-07-06T11:35:50;2.25;;;2.03;;
53271;SDS011;39160;48.580;7.756;2022-07-06T11:40:40;5.63;;;2.47;;
53271;SDS011;39160;48.580;7.756;2022-07-06T11:45:31;5.30;;;1.40;;
53271;SDS011;39160;48.580;7.756;2022-07-06T11:50:22;4.28;;;1.95;;
53271;SDS011;39160;48.580;7.756;2022-07-06T11:55:14;2.20;;;1.60;;
53271;SDS011;39160;48.580;7.756;2022-07-06T12:00:05;2.83;;;1.48;;
53271;SDS011;39160;48.580;7.756;2022-07-06T12:04:56;1.80;;;1.50;;
53271;SDS011;39160;48.580;7.756;2022-07-06T12:09:47;5.13;;;1.75;;
53271;SDS011;39160;48.580;7.756;2022-07-06T12:14:38;1.67;;;1.40;;
53271;SDS011;39160;48.580;7.756;2022-07-06T12:19:30;3.83;;;1.23;;
53271;SDS011;39160;48.580;7.756;2022-07-06T12:24:22;3.38;;;1.67;;
53271;SDS011;39160;48.580;7.756;2022-07-06T12:29:23;5.97;;;1.90;;
53271;SDS011;39160;48.580;7.756;2022-07-06T12:34:15;2.42;;;1.98;;
53271;SDS011;39160;48.580;7.756;2022-07-06T12:39:13;3.20;;;1.30;;
53271;SDS011;39160;48.580;7.756;2022-07-06T12:44:06;1.85;;;1.20;;
53271;SDS011;39160;48.580;7.756;2022-07-06T12:48:59;1.50;;;1.15;;
53271;SDS011;39160;48.580;7.756;2022-07-06T12:53:51;2.47;;;0.95;;
53271;SDS011;39160;48.580;7.756;2022-07-06T12:58:55;2.60;;;1.23;;
53271;SDS011;39160;48.580;7.756;2022-07-06T13:03:53;1.40;;;1.08;;
53271;SDS011;39160;48.580;7.756;2022-07-06T13:08:45;2.47;;;1.10;;
53271;SDS011;39160;48.580;7.756;2022-07-06T13:13:42;1.35;;;0.88;;
53271;SDS011;39160;48.580;7.756;2022-07-06T13:18:34;1.27;;;1.00;;
53271;SDS011;39160;48.580;7.756;2022-07-06T13:23:24;1.30;;;1.00;;
53271;SDS011;39160;48.580;7.756;2022-07-06T13:28:15;2.78;;;1.20;;
53271;SDS011;39160;48.580;7.756;2022-07-06T13:33:05;3.27;;;1.10;;
53271;SDS011;39160;48.580;7.756;2022-07-06T13:37:56;2.20;;;1.53;;
53271;SDS011;39160;48.580;7.756;2022-07-06T13:42:47;1.98;;;1.80;;
53271;SDS011;39160;48.580;7.756;2022-07-06T13:47:38;3.20;;;1.50;;
53271;SDS011;39160;48.580;7.756;2022-07-06T13:52:28;2.15;;;0.70;;
53271;SDS011;39160;48.580;7.756;2022-07-06T13:57:19;2.05;;;0.73;;
53271;SDS011;39160;48.580;7.756;2022-07-06T14:02:10;1.55;;;1.00;;
53271;SDS011;39160;48.580;7.756;2022-07-06T14:07:00;2.50;;;0.90;;
53271;SDS011;39160;48.580;7.756;2022-07-06T14:11:52;1.58;;;0.70;;
53271;SDS011;39160;48.580;7.756;2022-07-06T14:16:42;2.65;;;0.93;;
53271;SDS011;39160;48.580;7.756;2022-07-06T14:21:33;1.02;;;0.88;;
53271;SDS011;39160;48.580;7.756;2022-07-06T14:26:23;5.18;;;1.13;;
53271;SDS011;39160;48.580;7.756;2022-07-06T14:31:14;2.00;;;0.95;;
53271;SDS011;39160;48.580;7.756;2022-07-06T14:36:05;2.38;;;0.90;;
53271;SDS011;39160;48.580;7.756;2022-07-06T14:40:56;1.53;;;0.80;;
53271;SDS011;39160;48.580;7.756;2022-07-06T14:45:46;1.87;;;0.90;;
53271;SDS011;39160;48.580;7.756;2022-07-06T14:50:37;1.43;;;1.03;;
53271;SDS011;39160;48.580;7.756;2022-07-06T14:55:28;0.87;;;0.70;;
53271;SDS011;39160;48.580;7.756;2022-07-06T15:00:19;1.40;;;0.97;;
53271;SDS011;39160;48.580;7.756;2022-07-06T15:05:10;1.40;;;1.00;;
53271;SDS011;39160;48.580;7.756;2022-07-06T15:10:01;1.80;;;0.80;;
53271;SDS011;39160;48.580;7.756;2022-07-06T15:14:54;2.28;;;0.90;;
53271;SDS011;39160;48.580;7.756;2022-07-06T15:19:44;4.13;;;1.10;;
53271;SDS011;39160;48.580;7.756;2022-07-06T15:24:35;2.15;;;1.30;;
53271;SDS011;39160;48.580;7.756;2022-07-06T15:29:26;1.88;;;1.10;;
53271;SDS011;39160;48.580;7.756;2022-07-06T15:34:17;2.38;;;1.05;;
53271;SDS011;39160;48.580;7.756;2022-07-06T15:39:07;4.65;;;0.98;;
53271;SDS011;39160;48.580;7.756;2022-07-06T15:43:58;2.55;;;1.40;;
53271;SDS011;39160;48.580;7.756;2022-07-06T15:48:49;1.42;;;1.00;;
53271;SDS011;39160;48.580;7.756;2022-07-06T15:53:39;2.00;;;1.00;;
53271;SDS011;39160;48.580;7.756;2022-07-06T15:58:30;3.25;;;1.10;;
53271;SDS011;39160;48.580;7.756;2022-07-06T16:03:21;2.00;;;0.93;;
53271;SDS011;39160;48.580;7.756;2022-07-06T16:08:12;3.00;;;1.23;;
53271;SDS011;39160;48.580;7.756;2022-07-06T16:13:02;2.63;;;1.05;;
53271;SDS011;39160;48.580;7.756;2022-07-06T16:17:53;2.95;;;1.10;;
53271;SDS011;39160;48.580;7.756;2022-07-06T16:22:44;3.10;;;1.55;;
53271;SDS011;39160;48.580;7.756;2022-07-06T16:27:37;2.33;;;1.37;;
53271;SDS011;39160;48.580;7.756;2022-07-06T16:32:28;3.40;;;1.23;;
53271;SDS011;39160;48.580;7.756;2022-07-06T16:37:20;2.90;;;1.58;;
53271;SDS011;39160;48.580;7.756;2022-07-06T16:42:10;3.50;;;1.77;;
53271;SDS011;39160;48.580;7.756;2022-07-06T16:47:01;1.30;;;0.93;;
53271;SDS011;39160;48.580;7.756;2022-07-06T16:51:52;2.95;;;1.30;;
53271;SDS011;39160;48.580;7.756;2022-07-06T16:56:43;2.10;;;1.00;;
53271;SDS011;39160;48.580;7.756;2022-07-06T17:01:33;3.63;;;1.20;;
53271;SDS011;39160;48.580;7.756;2022-07-06T17:06:24;5.35;;;1.13;;
53271;SDS011;39160;48.580;7.756;2022-07-06T17:11:17;1.75;;;1.20;;
53271;SDS011;39160;48.580;7.756;2022-07-06T17:16:07;3.53;;;1.30;;
53271;SDS011;39160;48.580;7.756;2022-07-06T17:20:58;1.85;;;1.30;;
53271;SDS011;39160;48.580;7.756;2022-07-06T17:25:49;1.52;;;1.13;;
53271;SDS011;39160;48.580;7.756;2022-07-06T17:30:39;2.20;;;1.30;;
53271;SDS011;39160;48.580;7.756;2022-07-06T17:35:32;1.70;;;1.20;;
53271;SDS011;39160;48.580;7.756;2022-07-06T17:40:23;3.20;;;1.20;;
53271;SDS011;39160;48.580;7.756;2022-07-06T17:45:14;4.82;;;1.48;;
53271;SDS011;39160;48.580;7.756;2022-07-06T17:50:05;3.38;;;1.33;;
53271;SDS011;39160;48.580;7.756;2022-07-06T17:54:56;4.47;;;1.33;;
53271;SDS011;39160;48.580;7.756;2022-07-06T17:59:47;3.20;;;1.40;;
53271;SDS011;39160;48.580;7.756;2022-07-06T18:04:38;2.70;;;1.10;;
53271;SDS011;39160;48.580;7.756;2022-07-06T18:09:28;2.90;;;1.33;;
53271;SDS011;39160;48.580;7.756;2022-07-06T18:14:19;3.38;;;1.50;;
53271;SDS011;39160;48.580;7.756;2022-07-06T18:19:10;3.55;;;1.38;;
53271;SDS011;39160;48.580;7.756;2022-07-06T18:24:02;1.42;;;1.08;;
53271;SDS011;39160;48.580;7.756;2022-07-06T18:28:54;4.07;;;2.03;;
53271;SDS011;39160;48.580;7.756;2022-07-06T18:33:45;3.55;;;1.63;;
53271;SDS011;39160;48.580;7.756;2022-07-06T18:38:36;4.30;;;1.50;;
53271;SDS011;39160;48.580;7.756;2022-07-06T18:43:27;3.30;;;1.70;;
53271;SDS011;39160;48.580;7.756;2022-07-06T18:48:18;3.97;;;1.27;;
53271;SDS011;39160;48.580;7.756;2022-07-06T18:53:09;4.05;;;1.40;;
53271;SDS011;39160;48.580;7.756;2022-07-06T18:58:01;1.85;;;1.60;;
53271;SDS011;39160;48.580;7.756;2022-07-06T19:02:52;5.30;;;2.22;;
53271;SDS011;39160;48.580;7.756;2022-07-06T19:07:43;2.90;;;1.48;;
53271;SDS011;39160;48.580;7.756;2022-07-06T19:12:34;3.05;;;1.20;;
53271;SDS011;39160;48.580;7.756;2022-07-06T19:17:24;4.10;;;1.25;;
53271;SDS011;39160;48.580;7.756;2022-07-06T19:22:15;4.00;;;1.20;;
53271;SDS011;39160;48.580;7.756;2022-07-06T19:27:06;2.78;;;1.55;;
53271;SDS011;39160;48.580;7.756;2022-07-06T19:31:56;5.80;;;1.73;;
53271;SDS011;39160;48.580;7.756;2022-07-06T19:36:47;2.92;;;1.30;;
53271;SDS011;39160;48.580;7.756;2022-07-06T19:41:38;3.85;;;1.35;;
53271;SDS011;39160;48.580;7.756;2022-07-06T19:46:29;6.20;;;2.40;;
53271;SDS011;39160;48.580;7.756;2022-07-06T19:51:20;2.95;;;1.52;;
53271;SDS011;39160;48.580;7.756;2022-07-06T19:56:10;4.35;;;1.30;;
53271;SDS011;39160;48.580;7.756;2022-07-06T20:01:02;2.30;;;1.20;;
53271;SDS011;39160;48.580;7.756;2022-07-06T20:05:53;2.55;;;1.15;;
53271;SDS011;39160;48.580;7.756;2022-07-06T20:10:44;3.42;;;0.90;;
53271;SDS011;39160;48.580;7.756;2022-07-06T20:15:35;3.75;;;0.98;;
53271;SDS011;39160;48.580;7.756;2022-07-06T20:20:26;5.53;;;1.45;;
53271;SDS011;39160;48.580;7.756;2022-07-06T20:25:17;3.72;;;1.30;;
53271;SDS011;39160;48.580;7.756;2022-07-06T20:30:08;2.80;;;1.45;;
53271;SDS011;39160;48.580;7.756;2022-07-06T20:34:59;2.30;;;1.00;;
53271;SDS011;39160;48.580;7.756;2022-07-06T20:39:50;1.50;;;1.35;;
53271;SDS011;39160;48.580;7.756;2022-07-06T20:44:41;2.63;;;1.20;;
53271;SDS011;39160;48.580;7.756;2022-07-06T20:49:34;3.28;;;1.88;;
53271;SDS011;39160;48.580;7.756;2022-07-06T20:54:24;3.50;;;1.33;;
53271;SDS011;39160;48.580;7.756;2022-07-06T20:59:15;3.97;;;1.13;;
53271;SDS011;39160;48.580;7.756;2022-07-06T21:04:06;3.78;;;1.60;;
53271;SDS011;39160;48.580;7.756;2022-07-06T21:08:56;4.40;;;1.80;;
53271;SDS011;39160;48.580;7.756;2022-07-06T21:13:47;4.28;;;1.55;;
53271;SDS011;39160;48.580;7.756;2022-07-06T21:18:38;2.78;;;1.40;;
53271;SDS011;39160;48.580;7.756;2022-07-06T21:23:28;5.80;;;1.88;;
53271;SDS011;39160;48.580;7.756;2022-07-06T21:28:20;2.72;;;1.20;;
53271;SDS011;39160;48.580;7.756;2022-07-06T21:33:10;2.38;;;1.65;;
53271;SDS011;39160;48.580;7.756;2022-07-06T21:38:01;3.10;;;1.33;;
53271;SDS011;39160;48.580;7.756;2022-07-06T21:42:52;2.40;;;1.30;;
53271;SDS011;39160;48.580;7.756;2022-07-06T21:47:43;2.72;;;1.60;;
53271;SDS011;39160;48.580;7.756;2022-07-06T21:52:34;5.63;;;2.28;;
53271;SDS011;39160;48.580;7.756;2022-07-06T21:57:25;4.35;;;1.60;;
53271;SDS011;39160;48.580;7.756;2022-07-06T22:02:15;2.67;;;1.63;;
53271;SDS011;39160;48.580;7.756;2022-07-06T22:07:06;7.70;;;5.10;;
53271;SDS011;39160;48.580;7.756;2022-07-06T22:11:57;2.00;;;1.77;;
53271;SDS011;39160;48.580;7.756;2022-07-06T22:16:48;2.58;;;1.30;;
53271;SDS011;39160;48.580;7.756;2022-07-06T22:21:39;3.95;;;1.50;;
53271;SDS011;39160;48.580;7.756;2022-07-06T22:26:29;2.20;;;1.02;;
53271;SDS011;39160;48.580;7.756;2022-07-06T22:31:20;2.45;;;1.60;;
53271;SDS011;39160;48.580;7.756;2022-07-06T22:36:11;5.40;;;2.33;;
53271;SDS011;39160;48.580;7.756;2022-07-06T22:41:07;3.65;;;1.73;;
53271;SDS011;39160;48.580;7.756;2022-07-06T22:45:58;3.15;;;1.38;;
53271;SDS011;39160;48.580;7.756;2022-07-06T22:50:50;3.53;;;1.08;;
53271;SDS011;39160;48.580;7.756;2022-07-06T22:55:41;2.60;;;1.40;;
53271;SDS011;39160;48.580;7.756;2022-07-06T23:00:31;1.77;;;1.33;;
53271;SDS011;39160;48.580;7.756;2022-07-06T23:05:22;3.15;;;1.25;;
53271;SDS011;39160;48.580;7.756;2022-07-06T23:10:13;3.28;;;1.10;;
53271;SDS011;39160;48.580;7.756;2022-07-06T23:15:04;2.50;;;1.55;;
53271;SDS011;39160;48.580;7.756;2022-07-06T23:19:55;2.00;;;1.42;;
53271;SDS011;39160;48.580;7.756;2022-07-06T23:24:46;1.92;;;1.52;;
53271;SDS011;39160;48.580;7.756;2022-07-06T23:29:37;1.80;;;1.30;;
53271;SDS011;39160;48.580;7.756;2022-07-06T23:34:30;2.70;;;1.40;;
53271;SDS011;39160;48.580;7.756;2022-07-06T23:39:20;6.97;;;2.60;;
53271;SDS011;39160;48.580;7.756;2022-07-06T23:44:11;1.20;;;1.10;;
53271;SDS011;39160;48.580;7.756;2022-07-06T23:49:02;2.55;;;1.77;;
53271;SDS011;39160;48.580;7.756;2022-07-06T23:53:52;2.97;;;1.30;;
53271;SDS011;39160;48.580;7.756;2022-07-06T23:58:43;2.80;;;1.40;;
